sensor_id;sensor_type;location;lat;lon;timestamp;temperature;humidity
57857;DHT22;43683;48.650;9.290;2023-04-23T00:02:09;13.00;73.20
57857;DHT22;43683;48.650;9.290;2023-04-23T00:04:37;13.00;73.20
57857;DHT22;43683;48.650;9.290;2023-04-23T00:07:04;12.90;73.10
57857;DHT22;43683;48.650;9.290;2023-04-23T00:09:31;12.90;73.30
57857;DHT22;43683;48.650;9.290;2023-04-23T00:11:58;12.80;73.40
57857;DHT22;43683;48.650;9.290;2023-04-23T00:14:24;12.80;73.70
57857;DHT22;43683;48.650;9.290;2023-04-23T00:16:51;12.80;73.30
57857;DHT22;43683;48.650;9.290;2023-04-23T00:19:17;12.80;73.40
57857;DHT22;43683;48.650;9.290;2023-04-23T00:21:42;12.70;73.40
57857;DHT22;43683;48.650;9.290;2023-04-23T00:24:08;12.70;73.40
57857;DHT22;43683;48.650;9.290;2023-04-23T00:26:33;12.70;73.50
57857;DHT22;43683;48.650;9.290;2023-04-23T00:28:59;12.70;73.50
57857;DHT22;43683;48.650;9.290;2023-04-23T00:31:24;12.70;73.60
57857;DHT22;43683;48.650;9.290;2023-04-23T00:33:51;12.70;73.50
57857;DHT22;43683;48.650;9.290;2023-04-23T00:36:17;12.60;73.40
57857;DHT22;43683;48.650;9.290;2023-04-23T00:38:43;12.60;73.50
57857;DHT22;43683;48.650;9.290;2023-04-23T00:41:09;12.60;73.60
57857;DHT22;43683;48.650;9.290;2023-04-23T00:43:35;12.60;73.70
57857;DHT22;43683;48.650;9.290;2023-04-23T00:46:01;12.50;73.80
57857;DHT22;43683;48.650;9.290;2023-04-23T00:48:27;12.50;73.90
57857;DHT22;43683;48.650;9.290;2023-04-23T00:50:58;12.50;73.90
57857;DHT22;43683;48.650;9.290;2023-04-23T00:53:25;12.50;73.80
57857;DHT22;43683;48.650;9.290;2023-04-23T00:55:51;12.50;73.70
57857;DHT22;43683;48.650;9.290;2023-04-23T00:58:17;12.50;73.60
57857;DHT22;43683;48.650;9.290;2023-04-23T01:00:44;12.50;73.70
57857;DHT22;43683;48.650;9.290;2023-04-23T01:03:10;12.50;73.80
57857;DHT22;43683;48.650;9.290;2023-04-23T01:05:38;12.50;73.50
57857;DHT22;43683;48.650;9.290;2023-04-23T01:08:05;12.40;73.60
57857;DHT22;43683;48.650;9.290;2023-04-23T01:10:30;12.30;73.60
57857;DHT22;43683;48.650;9.290;2023-04-23T01:12:57;12.20;73.90
57857;DHT22;43683;48.650;9.290;2023-04-23T01:15:23;12.10;74.30
57857;DHT22;43683;48.650;9.290;2023-04-23T01:17:48;12.00;74.80
57857;DHT22;43683;48.650;9.290;2023-04-23T01:20:15;11.90;75.50
57857;DHT22;43683;48.650;9.290;2023-04-23T01:22:40;11.90;75.90
57857;DHT22;43683;48.650;9.290;2023-04-23T01:25:06;11.80;76.20
57857;DHT22;43683;48.650;9.290;2023-04-23T01:27:32;11.70;76.30
57857;DHT22;43683;48.650;9.290;2023-04-23T01:30:01;11.70;76.30
57857;DHT22;43683;48.650;9.290;2023-04-23T01:32:29;11.70;76.40
57857;DHT22;43683;48.650;9.290;2023-04-23T01:34:56;11.70;76.50
57857;DHT22;43683;48.650;9.290;2023-04-23T01:37:22;11.70;76.50
57857;DHT22;43683;48.650;9.290;2023-04-23T01:39:49;11.70;76.70
57857;DHT22;43683;48.650;9.290;2023-04-23T01:42:15;11.60;76.70
57857;DHT22;43683;48.650;9.290;2023-04-23T01:44:41;11.60;76.90
57857;DHT22;43683;48.650;9.290;2023-04-23T01:47:06;11.60;76.90
57857;DHT22;43683;48.650;9.290;2023-04-23T01:49:32;11.60;76.90
57857;DHT22;43683;48.650;9.290;2023-04-23T01:51:58;11.60;77.10
57857;DHT22;43683;48.650;9.290;2023-04-23T01:54:23;11.60;77.30
57857;DHT22;43683;48.650;9.290;2023-04-23T01:56:49;11.50;77.60
57857;DHT22;43683;48.650;9.290;2023-04-23T01:59:19;11.40;78.10
57857;DHT22;43683;48.650;9.290;2023-04-23T02:01:46;11.40;78.50
57857;DHT22;43683;48.650;9.290;2023-04-23T02:04:13;11.30;78.80
57857;DHT22;43683;48.650;9.290;2023-04-23T02:06:43;11.40;79.10
57857;DHT22;43683;48.650;9.290;2023-04-23T02:09:09;11.30;79.40
57857;DHT22;43683;48.650;9.290;2023-04-23T02:11:35;11.20;79.50
57857;DHT22;43683;48.650;9.290;2023-04-23T02:14:02;11.30;79.90
57857;DHT22;43683;48.650;9.290;2023-04-23T02:16:27;11.20;80.20
57857;DHT22;43683;48.650;9.290;2023-04-23T02:18:54;11.20;80.40
57857;DHT22;43683;48.650;9.290;2023-04-23T02:21:21;11.10;80.70
57857;DHT22;43683;48.650;9.290;2023-04-23T02:23:47;11.20;81.00
57857;DHT22;43683;48.650;9.290;2023-04-23T02:26:12;11.20;81.10
57857;DHT22;43683;48.650;9.290;2023-04-23T02:28:38;11.10;81.20
57857;DHT22;43683;48.650;9.290;2023-04-23T02:31:04;11.10;81.30
57857;DHT22;43683;48.650;9.290;2023-04-23T02:33:29;11.10;81.40
57857;DHT22;43683;48.650;9.290;2023-04-23T02:35:55;11.10;81.50
57857;DHT22;43683;48.650;9.290;2023-04-23T02:38:20;11.20;81.80
57857;DHT22;43683;48.650;9.290;2023-04-23T02:40:45;11.10;81.90
57857;DHT22;43683;48.650;9.290;2023-04-23T02:43:11;11.10;82.10
57857;DHT22;43683;48.650;9.290;2023-04-23T02:45:36;11.10;82.30
57857;DHT22;43683;48.650;9.290;2023-04-23T02:48:02;11.10;82.40
57857;DHT22;43683;48.650;9.290;2023-04-23T02:50:28;11.10;82.60
57857;DHT22;43683;48.650;9.290;2023-04-23T02:52:54;11.10;82.80
57857;DHT22;43683;48.650;9.290;2023-04-23T02:55:20;11.10;83.00
57857;DHT22;43683;48.650;9.290;2023-04-23T02:57:46;11.00;83.10
57857;DHT22;43683;48.650;9.290;2023-04-23T03:00:12;11.00;83.30
57857;DHT22;43683;48.650;9.290;2023-04-23T03:02:39;11.00;83.40
57857;DHT22;43683;48.650;9.290;2023-04-23T03:05:05;11.00;83.50
57857;DHT22;43683;48.650;9.290;2023-04-23T03:07:31;11.00;83.60
57857;DHT22;43683;48.650;9.290;2023-04-23T03:09:57;11.10;83.80
57857;DHT22;43683;48.650;9.290;2023-04-23T03:12:22;11.00;83.90
57857;DHT22;43683;48.650;9.290;2023-04-23T03:14:48;11.00;84.10
57857;DHT22;43683;48.650;9.290;2023-04-23T03:17:13;11.00;84.30
57857;DHT22;43683;48.650;9.290;2023-04-23T03:19:39;11.00;84.50
57857;DHT22;43683;48.650;9.290;2023-04-23T03:22:05;10.90;84.70
57857;DHT22;43683;48.650;9.290;2023-04-23T03:24:33;11.00;85.00
57857;DHT22;43683;48.650;9.290;2023-04-23T03:26:59;10.90;85.30
57857;DHT22;43683;48.650;9.290;2023-04-23T03:29:25;11.00;85.40
57857;DHT22;43683;48.650;9.290;2023-04-23T03:31:51;10.90;85.50
57857;DHT22;43683;48.650;9.290;2023-04-23T03:34:16;10.90;85.60
57857;DHT22;43683;48.650;9.290;2023-04-23T03:36:42;10.90;85.90
57857;DHT22;43683;48.650;9.290;2023-04-23T03:39:09;10.80;86.00
57857;DHT22;43683;48.650;9.290;2023-04-23T03:41:35;10.80;86.00
57857;DHT22;43683;48.650;9.290;2023-04-23T03:44:00;10.80;86.20
57857;DHT22;43683;48.650;9.290;2023-04-23T03:46:26;10.80;86.30
57857;DHT22;43683;48.650;9.290;2023-04-23T03:48:51;10.80;86.30
57857;DHT22;43683;48.650;9.290;2023-04-23T03:51:17;10.70;86.40
57857;DHT22;43683;48.650;9.290;2023-04-23T03:53:43;10.80;86.50
57857;DHT22;43683;48.650;9.290;2023-04-23T03:56:09;10.70;86.50
57857;DHT22;43683;48.650;9.290;2023-04-23T03:58:35;10.70;86.60
57857;DHT22;43683;48.650;9.290;2023-04-23T04:01:01;10.70;86.70
57857;DHT22;43683;48.650;9.290;2023-04-23T04:03:26;10.70;86.80
57857;DHT22;43683;48.650;9.290;2023-04-23T04:05:53;10.70;87.00
57857;DHT22;43683;48.650;9.290;2023-04-23T04:08:18;10.70;87.00
57857;DHT22;43683;48.650;9.290;2023-04-23T04:10:44;10.70;87.00
57857;DHT22;43683;48.650;9.290;2023-04-23T04:13:10;10.70;87.10
57857;DHT22;43683;48.650;9.290;2023-04-23T04:15:35;10.70;87.10
57857;DHT22;43683;48.650;9.290;2023-04-23T04:18:01;10.70;87.10
57857;DHT22;43683;48.650;9.290;2023-04-23T04:20:26;10.70;87.00
57857;DHT22;43683;48.650;9.290;2023-04-23T04:22:55;10.70;87.10
57857;DHT22;43683;48.650;9.290;2023-04-23T04:25:21;10.80;87.10
57857;DHT22;43683;48.650;9.290;2023-04-23T04:27:47;10.80;87.10
57857;DHT22;43683;48.650;9.290;2023-04-23T04:30:13;10.80;87.10
57857;DHT22;43683;48.650;9.290;2023-04-23T04:32:40;10.90;87.20
57857;DHT22;43683;48.650;9.290;2023-04-23T04:35:06;10.90;87.30
57857;DHT22;43683;48.650;9.290;2023-04-23T04:37:37;10.80;87.40
57857;DHT22;43683;48.650;9.290;2023-04-23T04:40:02;10.90;87.50
57857;DHT22;43683;48.650;9.290;2023-04-23T04:42:29;10.90;87.50
57857;DHT22;43683;48.650;9.290;2023-04-23T04:44:55;10.90;87.50
57857;DHT22;43683;48.650;9.290;2023-04-23T04:47:24;10.90;87.60
57857;DHT22;43683;48.650;9.290;2023-04-23T04:49:49;10.90;87.80
57857;DHT22;43683;48.650;9.290;2023-04-23T04:52:15;10.90;87.90
57857;DHT22;43683;48.650;9.290;2023-04-23T04:54:41;10.90;88.10
57857;DHT22;43683;48.650;9.290;2023-04-23T04:57:06;10.90;88.30
57857;DHT22;43683;48.650;9.290;2023-04-23T04:59:32;10.90;88.30
57857;DHT22;43683;48.650;9.290;2023-04-23T05:01:58;10.80;88.30
57857;DHT22;43683;48.650;9.290;2023-04-23T05:04:23;10.90;88.40
57857;DHT22;43683;48.650;9.290;2023-04-23T05:06:49;10.90;88.30
57857;DHT22;43683;48.650;9.290;2023-04-23T05:09:15;10.90;88.20
57857;DHT22;43683;48.650;9.290;2023-04-23T05:11:41;11.00;88.10
57857;DHT22;43683;48.650;9.290;2023-04-23T05:14:07;11.10;88.00
57857;DHT22;43683;48.650;9.290;2023-04-23T05:16:33;11.20;87.90
57857;DHT22;43683;48.650;9.290;2023-04-23T05:18:58;11.20;87.60
57857;DHT22;43683;48.650;9.290;2023-04-23T05:21:24;11.40;87.30
57857;DHT22;43683;48.650;9.290;2023-04-23T05:23:52;11.50;87.10
57857;DHT22;43683;48.650;9.290;2023-04-23T05:26:18;11.50;86.90
57857;DHT22;43683;48.650;9.290;2023-04-23T05:28:43;11.40;87.20
57857;DHT22;43683;48.650;9.290;2023-04-23T05:31:09;11.20;87.70
57857;DHT22;43683;48.650;9.290;2023-04-23T05:33:34;11.20;88.00
57857;DHT22;43683;48.650;9.290;2023-04-23T05:36:00;11.20;88.00
57857;DHT22;43683;48.650;9.290;2023-04-23T05:38:25;11.20;88.00
57857;DHT22;43683;48.650;9.290;2023-04-23T05:40:51;11.20;88.10
57857;DHT22;43683;48.650;9.290;2023-04-23T05:43:17;11.30;88.00
57857;DHT22;43683;48.650;9.290;2023-04-23T05:45:42;11.40;87.50
57857;DHT22;43683;48.650;9.290;2023-04-23T05:48:08;11.60;87.00
57857;DHT22;43683;48.650;9.290;2023-04-23T05:50:33;11.70;86.80
57857;DHT22;43683;48.650;9.290;2023-04-23T05:52:59;11.80;86.60
57857;DHT22;43683;48.650;9.290;2023-04-23T05:55:24;11.80;86.40
57857;DHT22;43683;48.650;9.290;2023-04-23T05:57:50;11.80;86.40
57857;DHT22;43683;48.650;9.290;2023-04-23T06:00:16;11.70;86.70
57857;DHT22;43683;48.650;9.290;2023-04-23T06:02:42;11.60;87.00
57857;DHT22;43683;48.650;9.290;2023-04-23T06:05:08;11.70;87.30
57857;DHT22;43683;48.650;9.290;2023-04-23T06:07:33;11.80;87.00
57857;DHT22;43683;48.650;9.290;2023-04-23T06:10:00;12.20;85.90
57857;DHT22;43683;48.650;9.290;2023-04-23T06:12:25;12.40;84.70
57857;DHT22;43683;48.650;9.290;2023-04-23T06:14:52;12.40;84.20
57857;DHT22;43683;48.650;9.290;2023-04-23T06:17:17;12.30;84.90
57857;DHT22;43683;48.650;9.290;2023-04-23T06:19:43;12.30;84.90
57857;DHT22;43683;48.650;9.290;2023-04-23T06:22:08;12.40;84.70
57857;DHT22;43683;48.650;9.290;2023-04-23T06:24:34;12.60;84.50
57857;DHT22;43683;48.650;9.290;2023-04-23T06:27:00;12.80;83.90
57857;DHT22;43683;48.650;9.290;2023-04-23T06:29:27;12.80;83.70
57857;DHT22;43683;48.650;9.290;2023-04-23T06:31:55;12.80;83.90
57857;DHT22;43683;48.650;9.290;2023-04-23T06:34:21;12.70;84.10
57857;DHT22;43683;48.650;9.290;2023-04-23T06:36:47;12.80;84.30
57857;DHT22;43683;48.650;9.290;2023-04-23T06:39:12;13.00;84.20
57857;DHT22;43683;48.650;9.290;2023-04-23T06:41:38;13.20;83.70
57857;DHT22;43683;48.650;9.290;2023-04-23T06:44:03;13.30;83.20
57857;DHT22;43683;48.650;9.290;2023-04-23T06:46:30;13.30;83.00
57857;DHT22;43683;48.650;9.290;2023-04-23T06:48:55;13.40;83.10
57857;DHT22;43683;48.650;9.290;2023-04-23T06:51:21;13.60;82.60
57857;DHT22;43683;48.650;9.290;2023-04-23T06:53:47;13.80;82.00
57857;DHT22;43683;48.650;9.290;2023-04-23T06:56:13;14.00;81.60
57857;DHT22;43683;48.650;9.290;2023-04-23T06:58:38;14.00;81.60
57857;DHT22;43683;48.650;9.290;2023-04-23T07:01:05;14.20;81.40
57857;DHT22;43683;48.650;9.290;2023-04-23T07:03:31;14.40;81.10
57857;DHT22;43683;48.650;9.290;2023-04-23T07:05:57;14.60;80.50
57857;DHT22;43683;48.650;9.290;2023-04-23T07:08:22;14.80;80.00
57857;DHT22;43683;48.650;9.290;2023-04-23T07:10:48;14.80;80.20
57857;DHT22;43683;48.650;9.290;2023-04-23T07:13:14;14.80;80.40
57857;DHT22;43683;48.650;9.290;2023-04-23T07:15:40;14.70;80.60
57857;DHT22;43683;48.650;9.290;2023-04-23T07:18:07;14.70;80.70
57857;DHT22;43683;48.650;9.290;2023-04-23T07:20:33;14.80;80.70
57857;DHT22;43683;48.650;9.290;2023-04-23T07:22:58;14.80;80.40
57857;DHT22;43683;48.650;9.290;2023-04-23T07:25:24;14.90;80.20
57857;DHT22;43683;48.650;9.290;2023-04-23T07:27:50;15.00;80.10
57857;DHT22;43683;48.650;9.290;2023-04-23T07:30:16;15.30;79.80
57857;DHT22;43683;48.650;9.290;2023-04-23T07:32:42;15.50;79.60
57857;DHT22;43683;48.650;9.290;2023-04-23T07:35:08;15.80;79.40
57857;DHT22;43683;48.650;9.290;2023-04-23T07:37:35;16.10;79.30
57857;DHT22;43683;48.650;9.290;2023-04-23T07:40:00;16.10;78.20
57857;DHT22;43683;48.650;9.290;2023-04-23T07:42:26;16.30;78.10
57857;DHT22;43683;48.650;9.290;2023-04-23T07:44:52;16.70;77.90
57857;DHT22;43683;48.650;9.290;2023-04-23T07:47:18;17.00;76.90
57857;DHT22;43683;48.650;9.290;2023-04-23T07:49:44;17.10;76.20
57857;DHT22;43683;48.650;9.290;2023-04-23T07:52:09;17.20;75.80
57857;DHT22;43683;48.650;9.290;2023-04-23T07:54:35;17.40;75.20
57857;DHT22;43683;48.650;9.290;2023-04-23T07:57:00;17.50;74.30
57857;DHT22;43683;48.650;9.290;2023-04-23T07:59:27;17.50;73.80
57857;DHT22;43683;48.650;9.290;2023-04-23T08:01:53;17.70;73.00
57857;DHT22;43683;48.650;9.290;2023-04-23T08:04:19;17.70;72.50
57857;DHT22;43683;48.650;9.290;2023-04-23T08:06:45;17.40;71.80
57857;DHT22;43683;48.650;9.290;2023-04-23T08:09:10;17.30;71.40
57857;DHT22;43683;48.650;9.290;2023-04-23T08:11:36;17.60;71.10
57857;DHT22;43683;48.650;9.290;2023-04-23T08:14:01;17.80;70.10
57857;DHT22;43683;48.650;9.290;2023-04-23T08:16:27;17.90;69.70
57857;DHT22;43683;48.650;9.290;2023-04-23T08:18:53;18.00;68.60
57857;DHT22;43683;48.650;9.290;2023-04-23T08:21:18;18.10;68.50
57857;DHT22;43683;48.650;9.290;2023-04-23T08:23:44;18.20;68.50
57857;DHT22;43683;48.650;9.290;2023-04-23T08:26:09;18.50;67.90
57857;DHT22;43683;48.650;9.290;2023-04-23T08:28:35;18.90;67.20
57857;DHT22;43683;48.650;9.290;2023-04-23T08:31:01;19.40;65.80
57857;DHT22;43683;48.650;9.290;2023-04-23T08:33:26;19.80;64.50
57857;DHT22;43683;48.650;9.290;2023-04-23T08:35:52;20.20;63.80
57857;DHT22;43683;48.650;9.290;2023-04-23T08:38:17;20.90;62.50
57857;DHT22;43683;48.650;9.290;2023-04-23T08:40:44;21.20;61.20
57857;DHT22;43683;48.650;9.290;2023-04-23T08:43:15;21.50;60.30
57857;DHT22;43683;48.650;9.290;2023-04-23T08:45:46;22.00;59.60
57857;DHT22;43683;48.650;9.290;2023-04-23T08:48:12;21.50;59.60
57857;DHT22;43683;48.650;9.290;2023-04-23T08:50:41;21.00;60.10
57857;DHT22;43683;48.650;9.290;2023-04-23T08:53:07;20.70;60.10
57857;DHT22;43683;48.650;9.290;2023-04-23T08:55:34;20.60;60.30
57857;DHT22;43683;48.650;9.290;2023-04-23T08:58:01;21.00;59.30
57857;DHT22;43683;48.650;9.290;2023-04-23T09:00:28;21.10;58.40
57857;DHT22;43683;48.650;9.290;2023-04-23T09:02:54;21.00;58.20
57857;DHT22;43683;48.650;9.290;2023-04-23T09:05:20;20.60;58.20
57857;DHT22;43683;48.650;9.290;2023-04-23T09:07:46;20.20;58.80
57857;DHT22;43683;48.650;9.290;2023-04-23T09:10:12;20.10;59.40
57857;DHT22;43683;48.650;9.290;2023-04-23T09:12:40;20.20;59.60
57857;DHT22;43683;48.650;9.290;2023-04-23T09:15:06;20.30;59.50
57857;DHT22;43683;48.650;9.290;2023-04-23T09:17:41;20.40;59.80
57857;DHT22;43683;48.650;9.290;2023-04-23T09:20:08;20.30;60.10
57857;DHT22;43683;48.650;9.290;2023-04-23T09:22:46;20.30;58.90
57857;DHT22;43683;48.650;9.290;2023-04-23T09:25:13;20.70;57.80
57857;DHT22;43683;48.650;9.290;2023-04-23T09:27:39;20.60;57.80
57857;DHT22;43683;48.650;9.290;2023-04-23T09:30:07;20.50;57.70
57857;DHT22;43683;48.650;9.290;2023-04-23T09:32:34;20.50;57.50
57857;DHT22;43683;48.650;9.290;2023-04-23T09:35:04;20.90;57.50
57857;DHT22;43683;48.650;9.290;2023-04-23T09:37:31;21.30;56.50
57857;DHT22;43683;48.650;9.290;2023-04-23T09:40:01;21.00;56.60
57857;DHT22;43683;48.650;9.290;2023-04-23T09:42:29;21.00;56.50
57857;DHT22;43683;48.650;9.290;2023-04-23T09:45:02;21.10;56.10
57857;DHT22;43683;48.650;9.290;2023-04-23T09:47:33;21.00;55.70
57857;DHT22;43683;48.650;9.290;2023-04-23T09:50:00;21.20;54.80
57857;DHT22;43683;48.650;9.290;2023-04-23T09:52:26;21.10;54.50
57857;DHT22;43683;48.650;9.290;2023-04-23T09:54:57;21.30;54.00
57857;DHT22;43683;48.650;9.290;2023-04-23T09:57:26;21.00;53.90
57857;DHT22;43683;48.650;9.290;2023-04-23T09:59:51;21.10;53.80
57857;DHT22;43683;48.650;9.290;2023-04-23T10:02:17;21.30;53.20
57857;DHT22;43683;48.650;9.290;2023-04-23T10:04:43;21.70;52.50
57857;DHT22;43683;48.650;9.290;2023-04-23T10:07:09;21.70;52.20
57857;DHT22;43683;48.650;9.290;2023-04-23T10:09:39;21.70;52.00
57857;DHT22;43683;48.650;9.290;2023-04-23T10:12:06;21.90;52.10
57857;DHT22;43683;48.650;9.290;2023-04-23T10:14:31;21.90;52.30
57857;DHT22;43683;48.650;9.290;2023-04-23T10:17:01;22.00;51.80
57857;DHT22;43683;48.650;9.290;2023-04-23T10:19:28;22.30;51.60
57857;DHT22;43683;48.650;9.290;2023-04-23T10:21:56;22.70;51.20
57857;DHT22;43683;48.650;9.290;2023-04-23T10:24:25;23.10;50.60
57857;DHT22;43683;48.650;9.290;2023-04-23T10:26:56;23.50;50.40
57857;DHT22;43683;48.650;9.290;2023-04-23T10:29:26;23.50;49.70
57857;DHT22;43683;48.650;9.290;2023-04-23T10:31:54;23.50;49.40
57857;DHT22;43683;48.650;9.290;2023-04-23T10:34:20;23.40;49.40
57857;DHT22;43683;48.650;9.290;2023-04-23T10:36:49;23.60;49.70
57857;DHT22;43683;48.650;9.290;2023-04-23T10:39:15;23.90;48.50
57857;DHT22;43683;48.650;9.290;2023-04-23T10:41:42;23.80;47.90
57857;DHT22;43683;48.650;9.290;2023-04-23T10:44:11;23.70;47.40
57857;DHT22;43683;48.650;9.290;2023-04-23T10:46:36;23.70;48.30
57857;DHT22;43683;48.650;9.290;2023-04-23T10:49:07;23.50;48.20
57857;DHT22;43683;48.650;9.290;2023-04-23T10:51:33;23.20;48.30
57857;DHT22;43683;48.650;9.290;2023-04-23T10:54:04;23.30;48.10
57857;DHT22;43683;48.650;9.290;2023-04-23T10:56:30;23.20;47.50
57857;DHT22;43683;48.650;9.290;2023-04-23T10:58:56;23.20;47.70
57857;DHT22;43683;48.650;9.290;2023-04-23T11:01:27;23.20;47.50
57857;DHT22;43683;48.650;9.290;2023-04-23T11:03:53;23.10;47.00
57857;DHT22;43683;48.650;9.290;2023-04-23T11:09:39;23.40;46.90
57857;DHT22;43683;48.650;9.290;2023-04-23T11:12:07;23.10;47.10
57857;DHT22;43683;48.650;9.290;2023-04-23T11:16:59;22.60;48.10
57857;DHT22;43683;48.650;9.290;2023-04-23T11:19:25;22.50;48.10
57857;DHT22;43683;48.650;9.290;2023-04-23T11:22:00;22.50;48.00
57857;DHT22;43683;48.650;9.290;2023-04-23T11:24:33;22.40;47.60
57857;DHT22;43683;48.650;9.290;2023-04-23T11:27:00;22.70;47.10
57857;DHT22;43683;48.650;9.290;2023-04-23T11:29:29;23.00;46.40
57857;DHT22;43683;48.650;9.290;2023-04-23T11:31:55;23.50;45.80
57857;DHT22;43683;48.650;9.290;2023-04-23T11:34:21;23.80;45.20
57857;DHT22;43683;48.650;9.290;2023-04-23T11:36:52;24.00;44.80
57857;DHT22;43683;48.650;9.290;2023-04-23T11:39:19;23.90;45.20
57857;DHT22;43683;48.650;9.290;2023-04-23T11:41:44;23.70;45.70
57857;DHT22;43683;48.650;9.290;2023-04-23T11:44:14;23.80;45.70
57857;DHT22;43683;48.650;9.290;2023-04-23T11:46:40;24.10;44.90
57857;DHT22;43683;48.650;9.290;2023-04-23T11:49:06;24.10;45.00
57857;DHT22;43683;48.650;9.290;2023-04-23T11:51:33;24.00;44.70
57857;DHT22;43683;48.650;9.290;2023-04-23T11:54:04;24.00;44.30
57857;DHT22;43683;48.650;9.290;2023-04-23T11:56:32;24.00;44.40
57857;DHT22;43683;48.650;9.290;2023-04-23T11:59:02;24.40;44.00
57857;DHT22;43683;48.650;9.290;2023-04-23T12:01:47;24.60;44.20
57857;DHT22;43683;48.650;9.290;2023-04-23T12:04:16;24.10;44.20
57857;DHT22;43683;48.650;9.290;2023-04-23T12:06:44;23.50;45.30
57857;DHT22;43683;48.650;9.290;2023-04-23T12:09:11;22.90;46.30
57857;DHT22;43683;48.650;9.290;2023-04-23T12:11:38;22.90;46.40
57857;DHT22;43683;48.650;9.290;2023-04-23T12:14:03;22.90;46.40
57857;DHT22;43683;48.650;9.290;2023-04-23T12:16:34;23.20;45.90
57857;DHT22;43683;48.650;9.290;2023-04-23T12:19:00;23.80;44.80
57857;DHT22;43683;48.650;9.290;2023-04-23T12:21:26;24.30;44.10
57857;DHT22;43683;48.650;9.290;2023-04-23T12:23:55;24.60;43.80
57857;DHT22;43683;48.650;9.290;2023-04-23T12:26:21;25.00;43.20
57857;DHT22;43683;48.650;9.290;2023-04-23T12:28:50;25.30;42.70
57857;DHT22;43683;48.650;9.290;2023-04-23T12:31:24;25.30;42.40
57857;DHT22;43683;48.650;9.290;2023-04-23T12:34:16;25.30;42.30
57857;DHT22;43683;48.650;9.290;2023-04-23T12:36:53;25.10;42.40
57857;DHT22;43683;48.650;9.290;2023-04-23T12:39:21;24.90;42.70
57857;DHT22;43683;48.650;9.290;2023-04-23T12:41:57;24.40;43.40
57857;DHT22;43683;48.650;9.290;2023-04-23T12:44:25;24.50;43.10
57857;DHT22;43683;48.650;9.290;2023-04-23T12:46:54;24.50;42.90
57857;DHT22;43683;48.650;9.290;2023-04-23T12:49:20;24.30;42.90
57857;DHT22;43683;48.650;9.290;2023-04-23T12:51:46;24.10;42.60
57857;DHT22;43683;48.650;9.290;2023-04-23T12:54:11;24.10;42.80
57857;DHT22;43683;48.650;9.290;2023-04-23T12:56:37;24.40;43.10
57857;DHT22;43683;48.650;9.290;2023-04-23T12:59:03;24.80;43.30
57857;DHT22;43683;48.650;9.290;2023-04-23T13:01:30;25.00;42.50
57857;DHT22;43683;48.650;9.290;2023-04-23T13:03:56;24.70;42.30
57857;DHT22;43683;48.650;9.290;2023-04-23T13:06:22;24.90;42.90
57857;DHT22;43683;48.650;9.290;2023-04-23T13:08:48;25.20;42.30
57857;DHT22;43683;48.650;9.290;2023-04-23T13:11:14;25.30;41.90
57857;DHT22;43683;48.650;9.290;2023-04-23T13:13:39;25.30;41.20
57857;DHT22;43683;48.650;9.290;2023-04-23T13:16:05;25.30;41.10
57857;DHT22;43683;48.650;9.290;2023-04-23T13:18:30;25.50;41.20
57857;DHT22;43683;48.650;9.290;2023-04-23T13:20:56;25.90;41.20
57857;DHT22;43683;48.650;9.290;2023-04-23T13:23:22;26.00;40.50
57857;DHT22;43683;48.650;9.290;2023-04-23T13:25:47;25.80;40.60
57857;DHT22;43683;48.650;9.290;2023-04-23T13:28:13;25.10;40.90
57857;DHT22;43683;48.650;9.290;2023-04-23T13:30:38;24.40;41.40
57857;DHT22;43683;48.650;9.290;2023-04-23T13:33:05;24.20;41.50
57857;DHT22;43683;48.650;9.290;2023-04-23T13:35:30;24.30;41.10
57857;DHT22;43683;48.650;9.290;2023-04-23T13:37:57;23.80;41.40
57857;DHT22;43683;48.650;9.290;2023-04-23T13:40:23;23.90;41.30
57857;DHT22;43683;48.650;9.290;2023-04-23T13:42:48;23.80;41.60
57857;DHT22;43683;48.650;9.290;2023-04-23T13:45:15;23.30;41.70
57857;DHT22;43683;48.650;9.290;2023-04-23T13:47:41;22.80;41.70
57857;DHT22;43683;48.650;9.290;2023-04-23T13:50:07;22.50;41.80
57857;DHT22;43683;48.650;9.290;2023-04-23T13:52:33;22.40;42.20
57857;DHT22;43683;48.650;9.290;2023-04-23T13:54:59;22.60;42.10
57857;DHT22;43683;48.650;9.290;2023-04-23T13:57:27;23.40;41.70
57857;DHT22;43683;48.650;9.290;2023-04-23T13:59:53;24.20;41.20
57857;DHT22;43683;48.650;9.290;2023-04-23T14:02:20;24.70;40.70
57857;DHT22;43683;48.650;9.290;2023-04-23T14:04:46;24.80;40.60
57857;DHT22;43683;48.650;9.290;2023-04-23T14:07:11;25.00;40.40
57857;DHT22;43683;48.650;9.290;2023-04-23T14:09:37;25.10;40.50
57857;DHT22;43683;48.650;9.290;2023-04-23T14:12:03;25.10;40.70
57857;DHT22;43683;48.650;9.290;2023-04-23T14:14:29;25.30;41.00
57857;DHT22;43683;48.650;9.290;2023-04-23T14:16:54;25.60;40.90
57857;DHT22;43683;48.650;9.290;2023-04-23T14:19:20;25.50;41.00
57857;DHT22;43683;48.650;9.290;2023-04-23T14:21:45;25.50;41.00
57857;DHT22;43683;48.650;9.290;2023-04-23T14:24:22;25.40;41.10
57857;DHT22;43683;48.650;9.290;2023-04-23T14:26:48;25.50;40.40
57857;DHT22;43683;48.650;9.290;2023-04-23T14:29:18;25.50;40.70
57857;DHT22;43683;48.650;9.290;2023-04-23T14:31:47;25.40;40.80
57857;DHT22;43683;48.650;9.290;2023-04-23T14:34:12;25.30;40.70
57857;DHT22;43683;48.650;9.290;2023-04-23T14:36:38;25.10;40.60
57857;DHT22;43683;48.650;9.290;2023-04-23T14:39:04;25.10;40.50
57857;DHT22;43683;48.650;9.290;2023-04-23T14:41:32;25.00;40.70
57857;DHT22;43683;48.650;9.290;2023-04-23T14:44:01;24.80;40.50
57857;DHT22;43683;48.650;9.290;2023-04-23T14:46:27;24.30;40.70
57857;DHT22;43683;48.650;9.290;2023-04-23T14:48:52;24.00;41.00
57857;DHT22;43683;48.650;9.290;2023-04-23T14:51:18;23.90;41.10
57857;DHT22;43683;48.650;9.290;2023-04-23T14:53:44;23.70;41.00
57857;DHT22;43683;48.650;9.290;2023-04-23T14:56:10;23.80;40.90
57857;DHT22;43683;48.650;9.290;2023-04-23T14:58:35;24.00;40.60
57857;DHT22;43683;48.650;9.290;2023-04-23T15:01:01;23.90;40.60
57857;DHT22;43683;48.650;9.290;2023-04-23T15:03:26;23.70;40.90
57857;DHT22;43683;48.650;9.290;2023-04-23T15:05:52;23.50;41.50
57857;DHT22;43683;48.650;9.290;2023-04-23T15:08:19;23.60;41.40
57857;DHT22;43683;48.650;9.290;2023-04-23T15:10:44;23.60;41.00
57857;DHT22;43683;48.650;9.290;2023-04-23T15:15:54;23.10;41.00
57857;DHT22;43683;48.650;9.290;2023-04-23T15:18:21;22.70;41.60
57857;DHT22;43683;48.650;9.290;2023-04-23T15:20:46;22.30;42.00
57857;DHT22;43683;48.650;9.290;2023-04-23T15:23:12;22.00;42.20
57857;DHT22;43683;48.650;9.290;2023-04-23T15:25:37;21.80;42.40
57857;DHT22;43683;48.650;9.290;2023-04-23T15:28:04;21.60;42.90
57857;DHT22;43683;48.650;9.290;2023-04-23T15:30:30;21.50;43.20
57857;DHT22;43683;48.650;9.290;2023-04-23T15:32:56;21.30;43.60
57857;DHT22;43683;48.650;9.290;2023-04-23T15:35:26;21.20;43.70